Time;durP1;ratioP1;P1;durP2;ratioP2;P2;SDS_P1;SDS_P2;PMS_P1;PMS_P2;Temp;Humidity;BMP_temperature;BMP_pressure;BME280_temperature;BME280_humidity;BME280_pressure;Samples;Min_cycle;Max_cycle;Signal;HPM_P1;HPM_P2
2023/09/20 00:00:29;;;;;;;7.60;3.35;;;17.30;83.30;;;;;;5066037;28;20055;-72
2023/09/20 00:02:56;;;;;;;9.30;3.90;;;17.30;83.30;;;;;;5066511;28;20090;-72
2023/09/20 00:05:22;;;;;;;7.85;4.18;;;17.30;83.30;;;;;;5066291;28;20048;-72
2023/09/20 00:07:50;;;;;;;8.95;4.25;;;17.30;83.30;;;;;;5049382;28;20090;-72
2023/09/20 00:10:18;;;;;;;9.27;3.67;;;17.30;83.30;;;;;;5063546;28;20064;-72
2023/09/20 00:12:44;;;;;;;8.85;3.45;;;17.30;83.20;;;;;;5064180;28;20049;-72
2023/09/20 00:15:10;;;;;;;9.05;3.70;;;17.30;83.10;;;;;;5054792;28;20044;-72
2023/09/20 00:17:37;;;;;;;10.45;3.78;;;17.30;83.00;;;;;;5052628;28;20538;-72
2023/09/20 00:20:12;;;;;;;10.65;4.55;;;17.40;83.10;;;;;;5052950;28;20047;-72
2023/09/20 00:22:44;;;;;;;9.90;3.65;;;17.40;83.20;;;;;;5048048;28;20044;-72
2023/09/20 00:25:14;;;;;;;7.95;3.58;;;17.40;83.10;;;;;;5052792;28;20111;-73
2023/09/20 00:27:41;;;;;;;8.95;3.55;;;17.40;83.10;;;;;;5052777;28;20538;-72
2023/09/20 00:30:14;;;;;;;7.70;3.47;;;17.40;83.10;;;;;;5052656;28;20082;-72
2023/09/20 00:32:43;;;;;;;10.82;3.80;;;17.40;83.10;;;;;;5050022;28;20076;-72
2023/09/20 00:35:11;;;;;;;14.48;4.00;;;17.40;83.00;;;;;;5039091;28;20471;-72
2023/09/20 00:37:41;;;;;;;11.77;4.03;;;17.40;82.80;;;;;;5053013;28;20604;-72
2023/09/20 00:40:15;;;;;;;8.25;3.60;;;17.40;82.70;;;;;;5052771;28;20045;-71
2023/09/20 00:42:42;;;;;;;7.93;3.33;;;17.40;82.60;;;;;;5051978;28;20037;-71
2023/09/20 00:45:09;;;;;;;7.07;3.20;;;17.40;82.50;;;;;;5068660;28;20049;-71
2023/09/20 00:47:40;;;;;;;7.22;4.13;;;17.50;82.40;;;;;;5036164;28;20041;-71
2023/09/20 00:50:11;;;;;;;12.80;4.35;;;17.50;82.30;;;;;;5036603;28;20033;-71
2023/09/20 00:52:40;;;;;;;10.55;3.70;;;17.50;82.10;;;;;;5052430;28;20503;-71
2023/09/20 00:55:15;;;;;;;8.13;3.97;;;17.50;82.10;;;;;;5052327;28;20049;-71
2023/09/20 00:57:53;;;;;;;10.20;3.38;;;17.50;82.00;;;;;;5035131;28;20155;-71
2023/09/20 01:00:29;;;;;;;11.88;3.50;;;17.50;81.90;;;;;;5020459;28;20039;-71
2023/09/20 01:03:00;;;;;;;8.60;3.13;;;17.50;81.80;;;;;;5051907;28;20047;-71
2023/09/20 01:05:26;;;;;;;13.07;3.95;;;17.50;81.60;;;;;;5051046;28;20036;-71
2023/09/20 01:07:57;;;;;;;6.15;2.92;;;17.60;81.50;;;;;;5035432;28;20037;-71
2023/09/20 01:10:27;;;;;;;7.10;2.90;;;17.60;81.50;;;;;;5052262;28;20048;-70
2023/09/20 01:12:54;;;;;;;10.40;3.92;;;17.60;81.40;;;;;;5051454;28;20037;-71
2023/09/20 01:15:24;;;;;;;10.07;3.85;;;17.50;81.20;;;;;;5051897;28;20033;-71
2023/09/20 01:18:01;;;;;;;11.02;3.28;;;17.60;81.20;;;;;;5051854;28;20033;-71
2023/09/20 01:20:28;;;;;;;6.57;3.00;;;17.60;81.10;;;;;;5050528;28;20040;-71
2023/09/20 01:22:56;;;;;;;14.60;3.95;;;17.60;81.00;;;;;;5040155;28;20057;-72
2023/09/20 01:25:24;;;;;;;10.65;3.70;;;17.60;81.00;;;;;;5051437;28;20068;-72
2023/09/20 01:27:56;;;;;;;9.50;3.75;;;17.60;80.90;;;;;;5051609;28;20516;-72
2023/09/20 01:30:36;;;;;;;7.10;3.53;;;17.60;80.70;;;;;;5051732;28;20120;-72
2023/09/20 01:33:07;;;;;;;10.13;3.67;;;17.60;80.60;;;;;;5039121;28;20128;-72
2023/09/20 01:35:33;;;;;;;9.82;3.72;;;17.70;80.80;;;;;;5068574;28;20077;-71
2023/09/20 01:37:58;;;;;;;9.88;3.38;;;17.70;80.70;;;;;;5051585;28;20048;-71
2023/09/20 01:40:29;;;;;;;7.72;2.85;;;17.70;80.70;;;;;;5051614;28;20045;-72
2023/09/20 01:42:59;;;;;;;9.50;3.58;;;17.70;80.60;;;;;;5050877;28;20041;-71
2023/09/20 01:45:25;;;;;;;8.38;3.42;;;17.70;80.60;;;;;;5051201;28;20456;-71
2023/09/20 01:47:54;;;;;;;9.77;3.08;;;17.70;80.50;;;;;;5051991;28;20077;-71
2023/09/20 01:50:24;;;;;;;7.50;3.25;;;17.70;80.40;;;;;;5051252;28;20033;-71
2023/09/20 01:52:57;;;;;;;6.95;3.25;;;17.70;80.70;;;;;;5051257;28;20044;-71
2023/09/20 01:55:25;;;;;;;8.40;3.63;;;17.70;80.20;;;;;;5051521;28;20476;-71
2023/09/20 01:57:53;;;;;;;10.80;3.88;;;17.70;80.10;;;;;;5046671;28;20048;-71
2023/09/20 02:02:58;;;;;;;7.15;2.92;;;17.80;79.90;;;;;;5036463;28;20376;-72
2023/09/20 02:05:25;;;;;;;8.02;2.95;;;17.70;79.90;;;;;;5047970;28;20106;-72
2023/09/20 02:07:53;;;;;;;7.00;2.97;;;17.80;80.00;;;;;;5051548;28;20098;-71
2023/09/20 02:10:19;;;;;;;6.43;2.90;;;17.80;80.00;;;;;;5051216;28;20044;-72
2023/09/20 02:12:46;;;;;;;5.57;2.63;;;17.80;80.00;;;;;;5044520;28;20492;-72
2023/09/20 02:15:13;;;;;;;9.07;3.28;;;17.80;80.00;;;;;;5050489;28;20563;-72
2023/09/20 02:17:39;;;;;;;7.20;2.72;;;17.80;80.00;;;;;;5051353;28;20033;-72
2023/09/20 02:20:24;;;;;;;7.93;2.90;;;17.80;79.90;;;;;;5050639;28;20516;-72
2023/09/20 02:22:55;;;;;;;9.38;3.47;;;17.80;79.80;;;;;;5050767;28;20086;-71
2023/09/20 02:25:22;;;;;;;10.48;3.53;;;17.80;79.80;;;;;;5051053;28;20558;-72
2023/09/20 02:27:53;;;;;;;10.65;3.17;;;17.80;79.70;;;;;;5034224;28;20032;-71
2023/09/20 02:30:24;;;;;;;7.32;3.42;;;17.80;79.80;;;;;;5049358;28;20468;-71
2023/09/20 02:32:52;;;;;;;8.00;3.45;;;17.80;79.70;;;;;;5051877;28;20051;-71
2023/09/20 02:35:25;;;;;;;7.00;3.22;;;17.80;79.70;;;;;;5053642;28;20045;-71
2023/09/20 02:37:52;;;;;;;9.13;3.10;;;17.80;79.70;;;;;;5055019;28;20045;-71
2023/09/20 02:40:18;;;;;;;8.98;3.63;;;17.80;79.70;;;;;;5054630;28;20511;-71
2023/09/20 02:42:48;;;;;;;6.78;3.13;;;17.80;79.70;;;;;;5054702;28;20049;-71
2023/09/20 02:45:18;;;;;;;7.30;3.15;;;17.90;79.60;;;;;;5054185;28;20072;-71
2023/09/20 02:47:48;;;;;;;8.75;2.85;;;17.80;79.50;;;;;;5054575;28;20434;-71
2023/09/20 02:50:16;;;;;;;12.68;4.13;;;17.80;79.60;;;;;;5038457;28;20045;-71
2023/09/20 02:52:45;;;;;;;11.15;2.88;;;17.80;79.50;;;;;;5054357;28;20048;-72
2023/09/20 02:55:12;;;;;;;10.80;3.20;;;17.80;79.50;;;;;;5054416;28;20048;-72
2023/09/20 02:57:39;;;;;;;9.57;3.38;;;17.80;79.40;;;;;;5054485;28;20428;-72
2023/09/20 03:00:16;;;;;;;9.75;3.22;;;17.80;79.30;;;;;;5054364;28;20099;-71
2023/09/20 03:02:44;;;;;;;10.15;3.13;;;17.80;79.20;;;;;;5054581;28;20048;-72
2023/09/20 03:05:11;;;;;;;5.78;2.92;;;17.80;79.10;;;;;;5054565;28;20060;-72
2023/09/20 03:07:37;;;;;;;12.02;3.40;;;17.80;79.00;;;;;;5071220;28;20041;-72
2023/09/20 03:10:05;;;;;;;8.13;3.53;;;17.70;79.00;;;;;;5054339;28;20035;-71
2023/09/20 03:12:33;;;;;;;12.57;3.40;;;17.70;78.90;;;;;;5071279;28;20044;-71
2023/09/20 03:15:04;;;;;;;7.50;2.95;;;17.70;78.90;;;;;;5054070;28;20045;-71
2023/09/20 03:17:31;;;;;;;7.32;3.22;;;17.70;78.90;;;;;;5054217;28;20493;-71
2023/09/20 03:19:57;;;;;;;6.82;3.33;;;17.70;78.90;;;;;;5053812;28;20044;-71
2023/09/20 03:22:22;;;;;;;8.00;3.22;;;17.70;78.80;;;;;;5054042;28;20047;-71
2023/09/20 03:24:48;;;;;;;8.85;3.30;;;17.70;78.80;;;;;;5070492;28;20047;-71
2023/09/20 03:27:17;;;;;;;9.07;3.67;;;17.60;78.70;;;;;;5054430;28;20124;-71
2023/09/20 03:29:42;;;;;;;8.32;3.22;;;17.70;78.70;;;;;;5053973;28;20037;-71
2023/09/20 03:32:09;;;;;;;10.40;4.40;;;17.60;78.60;;;;;;5037285;28;20089;-71
2023/09/20 03:34:35;;;;;;;6.50;3.13;;;17.60;78.50;;;;;;5053402;28;20052;-71
2023/09/20 03:37:00;;;;;;;12.63;4.15;;;17.60;78.40;;;;;;5053834;28;20477;-71
2023/09/20 03:39:26;;;;;;;10.63;3.58;;;17.60;78.40;;;;;;5037291;28;20048;-71
2023/09/20 03:41:52;;;;;;;7.57;2.97;;;17.50;78.30;;;;;;5053601;28;20041;-71
2023/09/20 03:44:18;;;;;;;9.15;3.75;;;17.50;78.30;;;;;;5052603;28;20060;-71
2023/09/20 03:46:44;;;;;;;8.85;3.20;;;17.50;78.30;;;;;;5053466;28;20045;-71
2023/09/20 03:49:11;;;;;;;8.40;3.42;;;17.40;78.20;;;;;;5053727;28;20041;-71
2023/09/20 03:51:36;;;;;;;9.55;3.50;;;17.40;78.20;;;;;;5053440;28;20110;-71
2023/09/20 03:54:03;;;;;;;8.98;3.47;;;17.40;78.20;;;;;;5053189;28;20044;-71
2023/09/20 03:56:28;;;;;;;8.68;3.55;;;17.40;78.20;;;;;;5070552;28;20473;-71
2023/09/20 03:58:55;;;;;;;12.82;4.05;;;17.40;78.30;;;;;;5070348;28;20059;-71
2023/09/20 04:01:21;;;;;;;8.27;3.70;;;17.30;78.30;;;;;;5053690;28;20080;-71
2023/09/20 04:03:46;;;;;;;7.18;3.40;;;17.30;78.30;;;;;;5051634;28;20079;-71
2023/09/20 04:06:12;;;;;;;8.93;3.65;;;17.30;78.30;;;;;;5019898;28;20029;-71
2023/09/20 04:08:37;;;;;;;8.20;3.25;;;17.30;78.30;;;;;;5036851;28;20044;-71
2023/09/20 04:11:05;;;;;;;9.55;3.85;;;17.20;78.20;;;;;;5053012;28;20245;-71
2023/09/20 04:13:31;;;;;;;8.23;3.20;;;17.20;78.30;;;;;;5069647;28;20041;-71
2023/09/20 04:15:57;;;;;;;10.32;4.32;;;17.20;78.30;;;;;;5052953;28;20051;-71
2023/09/20 04:18:23;;;;;;;9.88;3.42;;;17.10;78.30;;;;;;5036400;28;20098;-71
2023/09/20 04:20:51;;;;;;;10.65;3.33;;;17.10;78.40;;;;;;5018474;28;20049;-71
2023/09/20 04:23:16;;;;;;;10.27;3.70;;;17.10;78.90;;;;;;5049436;28;20041;-71
2023/09/20 04:25:42;;;;;;;8.05;3.22;;;17.00;78.50;;;;;;5053180;28;20094;-71
2023/09/20 04:28:09;;;;;;;10.48;3.13;;;17.10;78.60;;;;;;5053146;28;20037;-72
2023/09/20 04:30:38;;;;;;;6.97;3.10;;;17.10;78.60;;;;;;5053000;28;20044;-71
2023/09/20 04:33:06;;;;;;;11.68;3.50;;;17.00;78.60;;;;;;5052836;28;20053;-71
2023/09/20 04:35:34;;;;;;;8.90;3.60;;;17.00;78.70;;;;;;5036265;28;20068;-71
2023/09/20 04:38:00;;;;;;;10.60;3.70;;;17.00;78.80;;;;;;5036329;28;20037;-72
2023/09/20 04:40:26;;;;;;;11.00;3.63;;;17.00;78.80;;;;;;5034194;28;20049;-71
2023/09/20 04:42:51;;;;;;;6.90;3.15;;;16.90;78.80;;;;;;5052311;28;20033;-71
2023/09/20 04:45:19;;;;;;;8.75;3.92;;;16.90;78.80;;;;;;5052368;28;20063;-71
2023/09/20 04:47:45;;;;;;;8.30;3.47;;;16.90;78.90;;;;;;5052559;28;20523;-71
2023/09/20 04:50:14;;;;;;;7.32;3.45;;;16.90;78.90;;;;;;5052776;28;20071;-71
2023/09/20 04:52:41;;;;;;;10.70;3.85;;;16.90;79.00;;;;;;5052583;28;20496;-72
2023/09/20 04:55:10;;;;;;;7.97;3.60;;;16.80;79.00;;;;;;5050955;28;20392;-71
2023/09/20 04:57:36;;;;;;;10.90;3.50;;;16.90;79.10;;;;;;5052247;28;20049;-71
2023/09/20 05:00:15;;;;;;;8.60;3.08;;;16.80;79.00;;;;;;5052031;28;20052;-71
2023/09/20 05:02:41;;;;;;;8.55;3.75;;;16.80;79.10;;;;;;5047991;28;20049;-71
2023/09/20 05:05:07;;;;;;;8.65;3.50;;;16.80;79.20;;;;;;5052223;28;20085;-71
2023/09/20 05:07:34;;;;;;;9.35;3.42;;;16.80;79.20;;;;;;5068639;28;20421;-71
2023/09/20 05:10:00;;;;;;;11.45;3.17;;;16.80;79.30;;;;;;5052012;28;20044;-71
2023/09/20 05:12:26;;;;;;;7.55;3.17;;;16.80;79.30;;;;;;5052398;28;20510;-71
2023/09/20 05:14:51;;;;;;;11.40;3.30;;;16.80;79.40;;;;;;5051877;28;20492;-72
2023/09/20 05:17:17;;;;;;;11.15;3.10;;;16.70;79.30;;;;;;5051230;28;20122;-71
2023/09/20 05:19:43;;;;;;;6.97;3.28;;;16.70;79.40;;;;;;5051774;28;20496;-71
2023/09/20 05:22:08;;;;;;;6.82;3.42;;;16.70;79.50;;;;;;5051593;28;20041;-71
2023/09/20 05:24:34;;;;;;;6.93;3.38;;;16.70;79.50;;;;;;5051726;28;20037;-71
2023/09/20 05:27:01;;;;;;;9.20;3.47;;;16.70;79.50;;;;;;5051742;28;20041;-71
2023/09/20 05:29:26;;;;;;;6.75;3.08;;;16.70;79.50;;;;;;5051698;28;20036;-71
2023/09/20 05:31:52;;;;;;;9.05;3.10;;;16.70;79.50;;;;;;5051950;28;20037;-71
2023/09/20 05:34:18;;;;;;;8.57;3.03;;;16.70;79.60;;;;;;5024672;28;20037;-71
2023/09/20 05:36:45;;;;;;;5.55;2.90;;;16.70;80.10;;;;;;5051646;28;20037;-71
2023/09/20 05:39:12;;;;;;;8.18;3.72;;;16.70;79.70;;;;;;5051605;28;20111;-72
2023/09/20 05:41:39;;;;;;;9.45;3.33;;;16.70;79.70;;;;;;5051111;28;20067;-72
2023/09/20 05:44:06;;;;;;;5.95;3.17;;;16.70;79.70;;;;;;5026000;28;20063;-72
2023/09/20 05:46:31;;;;;;;7.60;3.03;;;16.70;79.80;;;;;;5033895;28;20376;-72
2023/09/20 05:48:57;;;;;;;6.95;3.00;;;16.70;79.80;;;;;;5068142;28;20044;-72
2023/09/20 05:51:22;;;;;;;10.02;3.22;;;16.70;79.80;;;;;;5051098;28;20029;-72
2023/09/20 05:53:48;;;;;;;6.55;2.58;;;16.70;79.90;;;;;;5051225;28;20098;-72
2023/09/20 05:56:14;;;;;;;7.00;2.47;;;16.70;80.00;;;;;;5051562;28;20041;-72
2023/09/20 05:58:41;;;;;;;7.22;2.92;;;16.80;80.10;;;;;;5018436;28;20044;-71
2023/09/20 06:01:09;;;;;;;6.22;2.97;;;16.70;80.10;;;;;;5051387;28;20058;-71
2023/09/20 06:03:36;;;;;;;7.50;2.88;;;16.80;80.20;;;;;;5035150;28;20048;-72
2023/09/20 06:06:04;;;;;;;7.93;2.70;;;16.80;80.20;;;;;;5034560;28;20033;-72
2023/09/20 06:08:30;;;;;;;7.03;2.47;;;16.80;80.20;;;;;;5050986;28;20116;-72
2023/09/20 06:10:56;;;;;;;6.85;2.72;;;16.80;80.20;;;;;;5051514;28;20179;-72
2023/09/20 06:13:21;;;;;;;6.53;2.78;;;16.90;80.40;;;;;;5050827;28;20653;-72
2023/09/20 06:15:47;;;;;;;9.75;2.97;;;16.80;80.30;;;;;;5051401;28;20045;-72
2023/09/20 06:18:14;;;;;;;5.80;2.78;;;16.90;80.40;;;;;;5067840;28;20179;-72
2023/09/20 06:20:45;;;;;;;6.30;2.58;;;16.90;80.20;;;;;;5050891;28;20550;-74
2023/09/20 06:23:12;;;;;;;7.40;2.97;;;16.90;80.20;;;;;;5032631;28;20048;-74
2023/09/20 06:25:38;;;;;;;6.22;2.83;;;17.00;80.30;;;;;;5048281;28;20049;-72
2023/09/20 06:28:09;;;;;;;6.75;3.10;;;16.90;80.20;;;;;;5031593;28;20087;-72
2023/09/20 06:30:34;;;;;;;8.38;3.10;;;17.00;80.20;;;;;;5031286;28;20042;-72
2023/09/20 06:33:00;;;;;;;10.20;4.22;;;17.00;80.20;;;;;;5048923;28;20055;-71
2023/09/20 06:35:26;;;;;;;8.05;2.60;;;17.00;80.20;;;;;;5050918;28;20139;-71
2023/09/20 06:37:51;;;;;;;9.13;3.67;;;17.00;80.30;;;;;;5067786;28;20063;-71
2023/09/20 06:40:22;;;;;;;9.00;3.00;;;17.00;80.30;;;;;;5050522;28;20043;-71
2023/09/20 06:42:48;;;;;;;6.72;3.22;;;17.10;80.40;;;;;;5034051;28;20048;-72
2023/09/20 06:45:14;;;;;;;6.60;2.60;;;17.10;80.40;;;;;;5067159;28;20511;-71
2023/09/20 06:47:40;;;;;;;6.70;3.25;;;17.10;80.50;;;;;;5050821;28;20045;-71
2023/09/20 06:50:07;;;;;;;8.05;3.00;;;17.20;80.50;;;;;;5067917;28;20102;-72
2023/09/20 06:52:33;;;;;;;8.27;2.88;;;17.20;80.40;;;;;;5067675;28;20092;-72
2023/09/20 06:54:58;;;;;;;8.65;3.42;;;17.20;80.30;;;;;;5050893;28;20059;-72
2023/09/20 06:57:24;;;;;;;8.52;2.65;;;17.30;80.40;;;;;;5034555;28;20049;-72
2023/09/20 06:59:54;;;;;;;7.18;2.70;;;17.30;80.30;;;;;;5047797;28;20493;-72
2023/09/20 07:02:20;;;;;;;8.95;3.20;;;17.30;80.10;;;;;;5044757;28;20042;-72
2023/09/20 07:04:48;;;;;;;6.43;2.70;;;17.40;80.10;;;;;;5031356;28;20037;-72
2023/09/20 07:07:14;;;;;;;6.65;2.70;;;17.40;80.00;;;;;;5047077;28;20044;-72
2023/09/20 07:09:39;;;;;;;6.65;3.20;;;17.40;79.80;;;;;;5049907;28;20060;-72
2023/09/20 07:12:07;;;;;;;7.35;3.08;;;17.40;79.70;;;;;;5049827;28;20086;-72
2023/09/20 07:14:34;;;;;;;6.20;2.30;;;17.50;80.20;;;;;;5049915;28;20507;-72
2023/09/20 07:17:00;;;;;;;6.45;2.90;;;17.50;79.70;;;;;;5055997;28;20512;-72
2023/09/20 07:19:29;;;;;;;6.80;2.75;;;17.50;79.60;;;;;;5048808;28;20047;-72
2023/09/20 07:21:55;;;;;;;7.78;3.20;;;17.60;79.70;;;;;;5053129;28;20032;-72
2023/09/20 07:24:24;;;;;;;7.00;3.17;;;17.50;79.50;;;;;;5036673;28;20039;-72
2023/09/20 07:26:58;;;;;;;8.05;2.88;;;17.60;79.60;;;;;;5070110;28;20045;-72
2023/09/20 07:29:24;;;;;;;;;;;17.70;79.50;;;;;;5053685;28;20404;-72
2023/09/20 07:31:50;;;;;;;6.43;3.17;;;17.70;79.30;;;;;;5072233;28;20372;-72
2023/09/20 07:34:19;;;;;;;8.25;3.20;;;17.70;79.40;;;;;;5034599;28;20045;-72
2023/09/20 07:36:49;;;;;;;8.23;3.47;;;17.70;79.30;;;;;;5034214;28;20095;-74
2023/09/20 07:39:20;;;;;;;5.00;3.00;;;17.80;79.30;;;;;;5042784;28;20061;-72
2023/09/20 07:41:46;;;;;;;10.68;3.58;;;17.80;79.10;;;;;;5052909;28;20048;-72
2023/09/20 07:44:13;;;;;;;8.13;2.92;;;17.90;79.20;;;;;;5053651;28;20053;-73
2023/09/20 07:46:40;;;;;;;6.72;3.17;;;17.90;78.90;;;;;;5037239;28;20131;-75
2023/09/20 07:49:09;;;;;;;7.85;3.60;;;17.90;78.80;;;;;;5037498;28;20044;-74
2023/09/20 07:51:37;;;;;;;5.68;2.70;;;18.00;78.80;;;;;;5048346;28;20048;-75
2023/09/20 07:54:10;;;;;;;7.32;3.25;;;18.00;78.80;;;;;;5053608;28;20396;-75
2023/09/20 07:56:43;;;;;;;8.65;3.85;;;18.10;78.60;;;;;;5051044;28;20087;-75
2023/09/20 07:59:09;;;;;;;10.18;3.38;;;18.10;78.40;;;;;;5054219;28;20045;-74
2023/09/20 08:01:35;;;;;;;6.28;2.92;;;18.10;78.10;;;;;;5053360;28;20072;-74
2023/09/20 08:04:06;;;;;;;8.23;3.47;;;18.20;78.10;;;;;;5069976;28;20079;-74
2023/09/20 08:06:33;;;;;;;8.80;3.33;;;18.10;77.90;;;;;;5053216;28;20044;-75
2023/09/20 08:08:59;;;;;;;7.75;3.05;;;18.20;77.90;;;;;;5059743;28;20044;-75
2023/09/20 08:11:26;;;;;;;6.65;3.35;;;18.20;77.70;;;;;;5063559;28;20536;-74
2023/09/20 08:13:54;;;;;;;8.35;4.10;;;18.20;77.60;;;;;;5062788;28;20400;-74
2023/09/20 08:16:21;;;;;;;7.78;3.67;;;18.20;77.70;;;;;;5064879;28;20440;-74
2023/09/20 08:21:32;;;;;;;6.05;3.60;;;18.20;77.50;;;;;;5062652;28;20041;-74
2023/09/20 14:10:12;;;;;;;5.75;3.05;;;22.10;65.20;;;;;;5131730;27;20298;-79
2023/09/20 14:12:41;;;;;;;6.90;3.38;;;22.00;66.80;;;;;;5164534;27;20067;-79
2023/09/20 14:15:09;;;;;;;4.10;2.72;;;22.00;66.60;;;;;;5130044;27;20045;-75
2023/09/20 14:17:35;;;;;;;8.43;3.30;;;22.00;66.60;;;;;;5127236;27;20031;-73
2023/09/20 14:20:08;;;;;;;5.45;2.85;;;22.00;66.70;;;;;;5150874;27;20034;-74
2023/09/20 14:22:37;;;;;;;7.90;3.20;;;22.10;66.00;;;;;;5141374;27;20039;-73
2023/09/20 14:25:11;;;;;;;6.38;3.10;;;22.10;65.50;;;;;;5117919;28;20039;-73
2023/09/20 14:27:41;;;;;;;6.80;3.42;;;22.10;64.40;;;;;;5114679;27;20368;-71
2023/09/20 14:30:10;;;;;;;19.60;3.95;;;22.10;63.40;;;;;;5134699;27;20039;-73
2023/09/20 14:32:38;;;;;;;5.63;3.10;;;22.10;63.70;;;;;;5112706;28;20088;-73
2023/09/20 14:35:07;;;;;;;5.53;3.25;;;22.10;63.70;;;;;;5129592;28;20419;-73
2023/09/20 14:37:34;;;;;;;6.10;3.70;;;22.10;63.60;;;;;;5127464;28;20044;-76
2023/09/20 14:40:00;;;;;;;6.70;3.05;;;22.10;64.00;;;;;;5109672;28;20495;-76
2023/09/20 14:42:27;;;;;;;5.43;2.95;;;22.20;63.90;;;;;;5127175;28;20050;-73
2023/09/20 14:44:53;;;;;;;8.10;3.05;;;22.20;62.80;;;;;;5115788;28;20051;-73
2023/09/20 14:47:20;;;;;;;5.65;3.33;;;22.30;62.50;;;;;;5109092;28;20047;-73
2023/09/20 14:49:46;;;;;;;6.40;3.20;;;22.20;62.50;;;;;;5108736;28;20048;-73
2023/09/20 14:52:12;;;;;;;4.93;3.05;;;22.30;62.80;;;;;;5108990;28;20264;-72
2023/09/20 14:54:38;;;;;;;6.10;2.80;;;22.30;62.90;;;;;;5117227;27;20137;-73
2023/09/20 14:57:04;;;;;;;4.45;2.50;;;22.30;62.90;;;;;;5109989;28;20152;-73
2023/09/20 14:59:30;;;;;;;5.78;2.92;;;22.40;62.60;;;;;;5108909;28;20035;-73
2023/09/20 15:01:55;;;;;;;7.03;2.55;;;22.40;62.60;;;;;;5108768;28;20482;-73
2023/09/20 15:04:22;;;;;;;5.80;2.30;;;22.40;62.90;;;;;;5108761;28;20487;-73
2023/09/20 15:06:47;;;;;;;4.63;2.33;;;22.40;62.50;;;;;;5108812;28;20079;-72
2023/09/20 15:09:16;;;;;;;5.90;2.63;;;22.40;62.30;;;;;;5093704;28;20511;-72
2023/09/20 15:11:43;;;;;;;6.03;2.53;;;22.40;62.00;;;;;;5091520;28;20036;-73
2023/09/20 15:14:10;;;;;;;4.97;2.72;;;22.40;62.00;;;;;;5108341;28;20044;-72
2023/09/20 15:16:37;;;;;;;5.13;2.83;;;22.40;62.00;;;;;;5096922;27;20031;-73
2023/09/20 15:19:03;;;;;;;6.65;2.97;;;22.40;62.40;;;;;;5109031;28;20100;-73
2023/09/20 15:21:29;;;;;;;5.35;2.70;;;22.40;61.70;;;;;;5078188;28;20048;-72
2023/09/20 15:23:54;;;;;;;6.95;2.63;;;22.40;61.00;;;;;;5105890;28;20051;-73
2023/09/20 15:26:21;;;;;;;5.28;2.90;;;22.40;60.90;;;;;;5105540;28;20522;-72
2023/09/20 15:28:49;;;;;;;7.05;2.65;;;22.40;60.30;;;;;;5092478;28;20042;-72
2023/09/20 15:31:19;;;;;;;3.20;1.98;;;22.40;60.10;;;;;;5109593;28;20371;-73
2023/09/20 15:33:46;;;;;;;5.07;2.30;;;22.40;60.50;;;;;;5091158;28;20358;-73
2023/09/20 15:36:13;;;;;;;6.68;2.30;;;22.30;60.90;;;;;;5099477;28;20243;-73
2023/09/20 15:38:40;;;;;;;3.58;2.08;;;22.30;60.70;;;;;;5076224;28;20364;-73
2023/09/20 15:41:08;;;;;;;3.92;2.53;;;22.30;60.80;;;;;;5114410;28;20043;-73
2023/09/20 15:43:43;;;;;;;6.28;2.53;;;22.30;60.80;;;;;;5106184;28;20132;-73
2023/09/20 15:46:13;;;;;;;4.80;2.42;;;22.30;60.40;;;;;;5109738;28;20510;-73
2023/09/20 15:48:39;;;;;;;6.15;2.38;;;22.30;60.30;;;;;;5099474;28;20119;-73
2023/09/20 15:51:05;;;;;;;4.22;2.50;;;22.20;60.50;;;;;;5096512;28;20606;-74
2023/09/20 15:53:32;;;;;;;5.03;1.90;;;22.20;60.50;;;;;;5112731;28;20036;-74
2023/09/20 15:55:59;;;;;;;3.67;2.25;;;22.20;60.50;;;;;;5114434;28;20036;-74
2023/09/20 15:58:26;;;;;;;5.60;2.72;;;22.10;60.30;;;;;;5077003;28;20040;-73
2023/09/20 16:00:52;;;;;;;4.13;2.20;;;22.10;60.70;;;;;;5094131;28;20491;-72
2023/09/20 16:03:19;;;;;;;5.95;2.30;;;22.10;60.80;;;;;;5088494;28;20031;-73
2023/09/20 16:05:48;;;;;;;4.88;2.33;;;22.00;60.30;;;;;;5093547;28;20040;-73
2023/09/20 16:08:17;;;;;;;4.57;2.40;;;22.00;60.50;;;;;;5103878;28;20091;-73
2023/09/20 16:10:44;;;;;;;4.88;2.30;;;22.00;60.40;;;;;;5102326;28;20036;-72
2023/09/20 16:13:11;;;;;;;4.10;2.17;;;21.90;60.10;;;;;;5109437;28;20075;-73
2023/09/20 16:15:37;;;;;;;4.95;2.38;;;21.90;60.00;;;;;;5097398;28;20073;-72
2023/09/20 16:18:05;;;;;;;3.75;2.47;;;21.90;60.00;;;;;;5099334;28;20036;-72
2023/09/20 16:20:32;;;;;;;5.45;2.40;;;21.80;60.20;;;;;;5097036;28;20114;-72
2023/09/20 16:22:58;;;;;;;4.13;1.90;;;21.80;60.00;;;;;;5113375;28;20044;-72
2023/09/20 16:25:24;;;;;;;4.97;2.15;;;21.80;60.00;;;;;;5108233;28;20051;-71
2023/09/20 16:27:50;;;;;;;4.55;2.15;;;21.70;59.90;;;;;;5076534;28;20479;-73
2023/09/20 16:30:16;;;;;;;3.60;2.00;;;21.70;59.90;;;;;;5100851;28;20046;-73
2023/09/20 16:32:43;;;;;;;3.30;1.50;;;21.70;60.20;;;;;;5088227;28;20040;-73
2023/09/20 16:35:13;;;;;;;7.75;2.28;;;21.60;60.60;;;;;;5103731;28;20124;-73
2023/09/20 16:37:39;;;;;;;3.00;1.80;;;21.60;60.70;;;;;;5093058;28;20043;-73
2023/09/20 16:40:06;;;;;;;4.07;1.90;;;21.60;60.80;;;;;;5076225;28;20043;-72
2023/09/20 16:42:31;;;;;;;6.10;2.13;;;21.60;61.10;;;;;;5078638;28;20036;-73
2023/09/20 16:44:57;;;;;;;4.72;1.80;;;21.50;61.20;;;;;;5098490;28;20096;-73
2023/09/20 16:47:23;;;;;;;3.05;1.40;;;21.50;61.30;;;;;;5099099;28;20048;-74
2023/09/20 16:49:50;;;;;;;6.65;2.03;;;21.50;61.60;;;;;;5094070;28;20036;-74
2023/09/20 16:52:17;;;;;;;2.90;1.27;;;21.40;61.70;;;;;;5102695;28;20032;-73
2023/09/20 16:54:43;;;;;;;4.55;1.60;;;21.40;61.80;;;;;;5094747;28;20503;-74
2023/09/20 16:57:09;;;;;;;3.55;1.55;;;21.40;62.00;;;;;;5113101;28;20077;-73
2023/09/20 16:59:36;;;;;;;4.70;1.38;;;21.40;62.20;;;;;;5106928;28;20086;-73
2023/09/20 17:02:03;;;;;;;2.60;1.50;;;21.30;62.40;;;;;;5106680;28;20082;-72
2023/09/20 17:04:33;;;;;;;5.43;1.58;;;21.30;62.60;;;;;;5104616;28;20364;-72
2023/09/20 17:07:03;;;;;;;3.50;1.63;;;21.30;62.60;;;;;;5089920;28;20067;-72
2023/09/20 17:09:30;;;;;;;4.15;1.80;;;21.20;62.70;;;;;;5103975;28;20095;-72
2023/09/20 17:12:01;;;;;;;5.35;1.77;;;21.20;62.70;;;;;;5105424;28;20031;-73
2023/09/20 17:14:28;;;;;;;2.58;1.20;;;21.20;62.90;;;;;;5106677;28;20047;-73
2023/09/20 17:16:56;;;;;;;4.00;1.80;;;21.10;63.00;;;;;;5107178;28;20039;-72
2023/09/20 17:19:22;;;;;;;3.85;1.60;;;21.10;63.20;;;;;;5106811;28;20051;-73
2023/09/20 17:21:48;;;;;;;5.20;1.50;;;21.00;63.40;;;;;;5105189;28;20039;-72
2023/09/20 17:24:14;;;;;;;3.75;1.20;;;21.00;63.60;;;;;;5104614;28;20189;-72
2023/09/20 17:26:45;;;;;;;3.80;1.38;;;21.00;63.70;;;;;;5087575;28;20047;-73
2023/09/20 17:29:11;;;;;;;3.90;1.83;;;21.00;63.90;;;;;;5094153;28;20058;-73
2023/09/20 17:31:37;;;;;;;3.85;1.55;;;20.90;64.10;;;;;;5088130;28;20044;-73
2023/09/20 17:34:05;;;;;;;2.45;1.48;;;20.90;64.30;;;;;;5086653;28;20460;-73
2023/09/20 17:36:31;;;;;;;2.67;1.20;;;20.90;64.50;;;;;;5106306;28;20566;-73
2023/09/20 17:39:00;;;;;;;2.50;1.63;;;20.80;64.70;;;;;;5106698;28;20112;-73
2023/09/20 17:41:29;;;;;;;3.83;1.75;;;20.80;65.00;;;;;;5089050;28;20109;-73
2023/09/20 17:43:58;;;;;;;3.88;1.48;;;20.70;65.20;;;;;;5099796;28;20410;-72
2023/09/20 17:46:28;;;;;;;3.38;1.40;;;20.70;65.30;;;;;;5096623;28;20478;-73
2023/09/20 17:48:54;;;;;;;3.40;1.75;;;20.70;65.50;;;;;;5080697;28;20034;-73
2023/09/20 17:51:20;;;;;;;3.45;1.50;;;20.60;66.00;;;;;;5096315;28;20446;-73
2023/09/20 17:53:46;;;;;;;3.80;1.50;;;20.60;65.80;;;;;;5101163;28;20047;-73
2023/09/20 17:56:18;;;;;;;3.70;1.67;;;20.60;65.90;;;;;;5097877;28;20049;-73
2023/09/20 17:58:45;;;;;;;8.20;1.58;;;20.50;66.40;;;;;;5087423;28;20112;-72
2023/09/20 18:01:14;;;;;;;4.32;1.30;;;20.50;66.10;;;;;;5092062;28;20052;-72
2023/09/20 18:03:41;;;;;;;2.95;1.77;;;20.50;66.00;;;;;;5085776;28;20403;-72
2023/09/20 18:06:11;;;;;;;3.53;1.73;;;20.50;66.20;;;;;;5097582;28;20044;-71
2023/09/20 18:08:37;;;;;;;2.60;1.30;;;20.40;66.30;;;;;;5111574;28;20056;-72
2023/09/20 18:11:03;;;;;;;3.53;1.63;;;20.40;66.30;;;;;;5109514;28;20107;-72
2023/09/20 18:13:28;;;;;;;3.90;1.67;;;20.30;66.40;;;;;;5112273;28;20040;-72
2023/09/20 18:15:54;;;;;;;3.30;1.50;;;20.30;66.40;;;;;;5111680;28;20380;-72
2023/09/20 18:18:20;;;;;;;2.97;1.42;;;20.30;66.60;;;;;;5095066;28;20036;-72
2023/09/20 18:20:47;;;;;;;3.85;1.60;;;20.20;66.80;;;;;;5101548;28;20047;-72
2023/09/20 18:23:13;;;;;;;3.33;1.45;;;20.20;66.90;;;;;;5077439;28;20072;-72
2023/09/20 18:25:39;;;;;;;5.15;1.45;;;20.10;67.10;;;;;;5096660;28;20040;-73
2023/09/20 18:28:08;;;;;;;4.40;1.40;;;20.10;67.20;;;;;;5106178;28;20051;-73
2023/09/20 18:30:34;;;;;;;4.18;1.70;;;20.00;67.30;;;;;;5109347;28;20047;-72
2023/09/20 18:33:00;;;;;;;4.07;1.73;;;19.90;67.50;;;;;;5111122;28;20521;-72
2023/09/20 18:35:29;;;;;;;2.25;1.33;;;19.90;67.70;;;;;;5080465;28;20036;-73
2023/09/20 18:37:56;;;;;;;4.40;1.50;;;19.80;67.70;;;;;;5091577;28;20044;-73